Dalhousie, Canada
Current Conditions -  °F | °C
As of 7:00 AM on Thursday 27 Nov 2014 (Local Time) from CZBF Reporting Station
Light Snow Light Snow  
Wind Chill: 19°   Ceiling: 1100
Heat Index: 27°   Visibility: 1.2mi
Dew Point: 25°   Wind: 7mph
Humidity: 93%   Direction: 360°N
Pressure: 29.81"   Gusts: NA
Location:  48.06°N, 66.37°W
Report Text: CZBF 271100Z 36006KT 320V040 1 1/4SM -SN VV011 M03/M04 A2981 RMK SN8 /S08/ SLP099
Loading
Personal Weather Stations






























Interactive Weather Map New forecast layout! Learn more

10-Day Weather Forecast

Advertisements
Track Severe Weather on mobile